Time;durP1;ratioP1;P1;durP2;ratioP2;P2;SDS_P1;SDS_P2;PMS_P1;PMS_P2;Temp;Humidity;BMP_temperature;BMP_pressure;BME280_temperature;BME280_humidity;BME280_pressure;Samples;Min_cycle;Max_cycle;Signal;HPM_P1;HPM_P2
2023/01/17 00:00:25;;;;;;;2.13;0.90;;;;;;;;;;4973160;28;20057;-75
2023/01/17 00:02:52;;;;;;;2.13;1.02;;;;;;;;;;4973366;28;20097;-76
2023/01/17 00:10:48;;;;;;;2.40;1.13;;;;;;;;;;4973098;28;20057;-76
2023/01/17 00:13:14;;;;;;;2.35;0.88;;;;;;;;;;4973704;28;20494;-76
2023/01/17 00:15:41;;;;;;;3.35;1.00;;;;;;;;;;4973245;28;20138;-76
2023/01/17 00:18:08;;;;;;;1.55;0.70;;;;;;;;;;4973718;28;20105;-75
2023/01/17 00:26:11;;;;;;;2.22;0.90;;;;;;;;;;4975937;28;20562;-76
2023/01/17 01:35:45;;;;;;;1.13;0.52;;;;;;;;;;4978161;28;20047;-76
2023/01/17 01:38:11;;;;;;;1.45;0.70;;;;;;;;;;4976532;28;20461;-75
2023/01/17 01:40:45;;;;;;;3.00;0.70;;;;;;;;;;4976817;28;20093;-75
2023/01/17 01:43:14;;;;;;;1.20;0.60;;;;;;;;;;4976227;28;20047;-75
2023/01/17 01:45:46;;;;;;;0.93;0.50;;;;;;;;;;4977573;28;20055;-75
2023/01/17 01:48:23;;;;;;;0.73;0.45;;;;;;;;;;4977638;28;20078;-76
2023/01/17 01:50:50;;;;;;;0.63;0.50;;;;;;;;;;4978464;28;20134;-76
2023/01/17 01:53:18;;;;;;;2.67;0.63;;;;;;;;;;4978153;28;20470;-76
2023/01/17 01:55:49;;;;;;;2.70;0.70;;;;;;;;;;4977447;28;20457;-76
2023/01/17 01:58:21;;;;;;;1.83;0.80;;;;;;;;;;4977681;28;20422;-77
2023/01/17 02:00:48;;;;;;;0.65;0.50;;;;;;;;;;4977284;28;20050;-76
2023/01/17 02:03:19;;;;;;;1.00;0.50;;;;;;;;;;4976492;28;20050;-77
2023/01/17 02:05:46;;;;;;;1.35;0.60;;;;;;;;;;4989102;28;20061;-76
2023/01/17 02:08:16;;;;;;;1.05;0.50;;;;;;;;;;4994819;28;20137;-77
2023/01/17 02:10:43;;;;;;;1.52;0.60;;;;;;;;;;4995057;28;20054;-78
2023/01/17 02:13:12;;;;;;;0.80;0.50;;;;;;;;;;4994434;28;20047;-76
2023/01/17 02:15:45;;;;;;;1.30;0.60;;;;;;;;;;4994939;28;20093;-77
2023/01/17 02:18:22;;;;;;;1.17;0.40;;;;;;;;;;4994529;28;20497;-76
2023/01/17 02:21:13;;;;;;;2.63;0.68;;;;;;;;;;4994348;28;20490;-76
2023/01/17 02:24:06;;;;;;;;;;;;;;;;;;4994899;28;20129;-76
2023/01/17 02:26:53;;;;;;;1.50;0.50;;;;;;;;;;4994918;28;20008;-76
2023/01/17 02:29:51;;;;;;;2.75;0.65;;;;;;;;;;4994685;28;20074;-76
2023/01/17 02:32:30;;;;;;;2.40;0.70;;;;;;;;;;4994385;28;20509;-77
2023/01/17 02:35:01;;;;;;;0.82;0.43;;;;;;;;;;4995657;28;20647;-76
2023/01/17 02:37:40;;;;;;;0.75;0.47;;;;;;;;;;4995246;28;20137;-76
2023/01/17 02:40:14;;;;;;;1.95;0.70;;;;;;;;;;4995735;28;20105;-76
2023/01/17 02:42:46;;;;;;;1.45;0.50;;;;;;;;;;4994714;28;20417;-77
2023/01/17 02:45:15;;;;;;;1.52;0.60;;;;;;;;;;4994863;28;20078;-76
2023/01/17 02:47:43;;;;;;;0.98;0.47;;;;;;;;;;4994797;28;20042;-75
2023/01/17 02:50:13;;;;;;;1.95;0.60;;;;;;;;;;4994606;28;20062;-75
2023/01/17 02:53:00;;;;;;;2.33;0.50;;;;;;;;;;4991888;28;20478;-74
2023/01/17 02:55:40;;;;;;;1.58;0.65;;;;;;;;;;4994332;28;20537;-75
2023/01/17 02:58:17;;;;;;;1.25;0.40;;;;;;;;;;4993844;28;20231;-75
2023/01/17 03:00:56;;;;;;;0.88;0.57;;;;;;;;;;4994323;28;20046;-75
2023/01/17 03:03:30;;;;;;;1.00;0.40;;;;;;;;;;4994484;28;20125;-74
2023/01/17 03:06:02;;;;;;;1.30;0.60;;;;;;;;;;4988820;28;20050;-76
2023/01/17 03:08:30;;;;;;;3.00;0.60;;;;;;;;;;4975090;28;20047;-76
2023/01/17 03:10:57;;;;;;;1.13;0.40;;;;;;;;;;4974576;28;20061;-74
2023/01/17 03:13:24;;;;;;;1.25;0.50;;;;;;;;;;4975215;28;20130;-76
2023/01/17 03:15:51;;;;;;;1.13;0.60;;;;;;;;;;4975389;28;20086;-75
2023/01/17 03:18:18;;;;;;;2.45;0.70;;;;;;;;;;4974812;28;20085;-75
2023/01/17 03:20:46;;;;;;;0.55;0.40;;;;;;;;;;4974958;28;20051;-74
2023/01/17 03:23:12;;;;;;;1.60;0.70;;;;;;;;;;4975003;28;20454;-75
2023/01/17 03:25:40;;;;;;;1.92;0.60;;;;;;;;;;4974934;28;20490;-75
2023/01/17 03:28:07;;;;;;;0.82;0.50;;;;;;;;;;4974257;28;20051;-75
2023/01/17 03:30:34;;;;;;;1.85;0.80;;;;;;;;;;4974826;28;20605;-76
2023/01/17 03:33:00;;;;;;;4.05;1.08;;;;;;;;;;4973830;28;20101;-75
2023/01/17 03:35:28;;;;;;;4.88;0.88;;;;;;;;;;4973998;28;20057;-75
2023/01/17 03:37:56;;;;;;;2.40;1.10;;;;;;;;;;4973962;28;20560;-75
2023/01/17 03:40:22;;;;;;;1.92;0.75;;;;;;;;;;4974364;28;20066;-76
2023/01/17 03:42:49;;;;;;;3.30;0.93;;;;;;;;;;4973596;28;20592;-74
2023/01/17 03:45:16;;;;;;;3.33;0.80;;;;;;;;;;4973954;28;20122;-74
2023/01/17 03:47:43;;;;;;;1.67;0.80;;;;;;;;;;4973883;28;20130;-76
2023/01/17 03:50:11;;;;;;;1.65;0.88;;;;;;;;;;4973577;28;20130;-75
2023/01/17 03:53:26;;;;;;;3.42;0.90;;;;;;;;;;4973669;28;20142;-75
2023/01/17 03:55:54;;;;;;;2.80;1.30;;;;;;;;;;4971697;28;20053;-76
2023/01/17 03:58:20;;;;;;;3.72;0.98;;;;;;;;;;4973693;28;20070;-76
2023/01/17 04:00:47;;;;;;;2.88;1.00;;;;;;;;;;4973724;28;20162;-76
2023/01/17 04:03:14;;;;;;;2.25;1.10;;;;;;;;;;4973109;28;20125;-76
2023/01/17 04:05:41;;;;;;;2.30;0.90;;;;;;;;;;4973793;28;20049;-76
2023/01/17 04:08:07;;;;;;;2.83;0.90;;;;;;;;;;4973342;28;20078;-76
2023/01/17 04:10:34;;;;;;;2.42;0.90;;;;;;;;;;4973528;28;20414;-76
2023/01/17 04:13:02;;;;;;;2.10;1.00;;;;;;;;;;4972995;28;20082;-76
2023/01/17 04:15:29;;;;;;;2.90;1.10;;;;;;;;;;4973431;28;20046;-76
2023/01/17 04:17:55;;;;;;;2.65;1.05;;;;;;;;;;4973675;28;20089;-76
2023/01/17 04:20:30;;;;;;;4.32;1.20;;;;;;;;;;4973633;28;20049;-76
2023/01/17 04:22:57;;;;;;;3.90;1.00;;;;;;;;;;4973068;28;20421;-76
2023/01/17 04:25:24;;;;;;;2.83;0.90;;;;;;;;;;4973260;28;20049;-77
2023/01/17 04:27:51;;;;;;;1.58;0.63;;;;;;;;;;4973239;28;20109;-74
2023/01/17 04:30:19;;;;;;;2.35;0.90;;;;;;;;;;4973548;28;20562;-75
2023/01/17 04:32:46;;;;;;;4.43;1.17;;;;;;;;;;4973205;28;20130;-75
2023/01/17 04:35:12;;;;;;;5.45;1.20;;;;;;;;;;4973392;28;20047;-75
2023/01/17 04:37:39;;;;;;;3.75;1.35;;;;;;;;;;4973529;28;20054;-77
2023/01/17 04:40:07;;;;;;;2.95;1.40;;;;;;;;;;4973406;28;20451;-76
2023/01/17 04:42:33;;;;;;;2.60;1.02;;;;;;;;;;4973663;28;20142;-77
2023/01/17 04:45:00;;;;;;;3.38;1.10;;;;;;;;;;4974138;28;20053;-76
2023/01/17 04:47:28;;;;;;;3.10;1.20;;;;;;;;;;4977220;28;20050;-78
2023/01/17 04:49:54;;;;;;;3.70;1.45;;;;;;;;;;4976808;28;20042;-78
2023/01/17 04:52:21;;;;;;;4.25;1.00;;;;;;;;;;4976710;28;20047;-76
2023/01/17 04:54:48;;;;;;;4.00;1.40;;;;;;;;;;4977446;28;20043;-76
2023/01/17 04:57:15;;;;;;;6.05;1.45;;;;;;;;;;4976992;28;20541;-75
2023/01/17 04:59:41;;;;;;;2.60;1.25;;;;;;;;;;4977542;28;20042;-76
2023/01/17 05:02:08;;;;;;;4.72;1.70;;;;;;;;;;4976460;28;20129;-75
2023/01/17 05:04:36;;;;;;;1.67;0.85;;;;;;;;;;4979781;28;20121;-77
2023/01/17 05:07:03;;;;;;;3.47;0.90;;;;;;;;;;4996373;28;20042;-76
2023/01/17 05:09:30;;;;;;;1.45;0.73;;;;;;;;;;4996465;28;20046;-76
2023/01/17 05:11:57;;;;;;;2.78;0.85;;;;;;;;;;4997105;28;20109;-76
2023/01/17 05:14:25;;;;;;;3.58;0.98;;;;;;;;;;5003522;28;20053;-76
2023/01/17 05:16:52;;;;;;;5.28;0.70;;;;;;;;;;5005047;28;20085;-75
2023/01/17 05:19:19;;;;;;;1.40;0.60;;;;;;;;;;5004747;28;20050;-75
2023/01/17 05:21:47;;;;;;;1.90;0.70;;;;;;;;;;5000897;28;20074;-76
2023/01/17 05:24:13;;;;;;;1.60;0.70;;;;;;;;;;4997845;28;20050;-77
2023/01/17 05:26:41;;;;;;;2.47;0.82;;;;;;;;;;4996721;28;20054;-76
2023/01/17 05:29:08;;;;;;;2.10;0.90;;;;;;;;;;4996810;28;20069;-76
2023/01/17 05:31:35;;;;;;;3.22;0.80;;;;;;;;;;4996184;28;20141;-76
2023/01/17 05:34:02;;;;;;;2.63;1.00;;;;;;;;;;4996681;28;20050;-76
2023/01/17 05:36:29;;;;;;;2.00;1.00;;;;;;;;;;4996233;28;20061;-76
2023/01/17 05:38:57;;;;;;;2.13;1.00;;;;;;;;;;4996095;28;20046;-76
2023/01/17 05:41:23;;;;;;;1.55;0.70;;;;;;;;;;4996184;28;20074;-76
2023/01/17 05:43:50;;;;;;;2.38;0.82;;;;;;;;;;4995482;28;20565;-75
2023/01/17 05:46:17;;;;;;;2.47;1.00;;;;;;;;;;4995795;28;20077;-76
2023/01/17 05:48:43;;;;;;;2.20;0.90;;;;;;;;;;4995917;28;20109;-77
2023/01/17 05:51:10;;;;;;;2.85;0.93;;;;;;;;;;4995639;28;20134;-76
2023/01/17 05:53:37;;;;;;;2.50;0.90;;;;;;;;;;4995525;28;20130;-76
2023/01/17 05:56:05;;;;;;;3.08;0.60;;;;;;;;;;4995473;28;20065;-76
2023/01/17 05:58:32;;;;;;;1.38;0.80;;;;;;;;;;4995759;28;20456;-76
2023/01/17 06:00:58;;;;;;;1.60;1.00;;;;;;;;;;4995118;28;20058;-76
2023/01/17 06:03:26;;;;;;;1.25;0.77;;;;;;;;;;4995602;28;20061;-75
2023/01/17 06:05:52;;;;;;;3.13;0.93;;;;;;;;;;4995895;28;20058;-76
2023/01/17 06:08:19;;;;;;;2.25;0.90;;;;;;;;;;4995986;28;20130;-76
2023/01/17 06:10:45;;;;;;;2.35;0.70;;;;;;;;;;4996097;28;20081;-76
2023/01/17 06:13:19;;;;;;;2.00;0.70;;;;;;;;;;4995089;28;20061;-76
2023/01/17 06:15:46;;;;;;;2.50;0.90;;;;;;;;;;4995407;28;20497;-76
2023/01/17 06:18:14;;;;;;;1.90;0.88;;;;;;;;;;4995156;28;20113;-75
2023/01/17 06:20:42;;;;;;;2.58;1.08;;;;;;;;;;5044761;22;20076;-51
2023/01/17 06:23:11;;;;;;;2.08;1.00;;;;;;;;;;5034091;28;20076;-49
2023/01/17 06:25:39;;;;;;;2.42;1.00;;;;;;;;;;5034829;28;20132;-48
2023/01/17 06:28:07;;;;;;;3.20;1.02;;;;;;;;;;5034174;28;20056;-52
2023/01/17 06:30:36;;;;;;;2.08;0.80;;;;;;;;;;5034797;28;20061;-47
2023/01/17 06:33:03;;;;;;;1.77;1.02;;;;;;;;;;5034223;28;20053;-48
2023/01/17 06:35:30;;;;;;;1.58;0.77;;;;;;;;;;5034482;28;20057;-49
2023/01/17 06:37:59;;;;;;;3.13;1.23;;;;;;;;;;5034087;28;20058;-50
2023/01/17 06:40:26;;;;;;;4.22;0.88;;;;;;;;;;5033837;28;20088;-47
2023/01/17 06:42:53;;;;;;;2.55;1.08;;;;;;;;;;5033895;28;20053;-50
2023/01/17 06:45:20;;;;;;;3.08;1.20;;;;;;;;;;5034018;28;20500;-48
2023/01/17 06:47:49;;;;;;;2.00;0.85;;;;;;;;;;5033812;28;20060;-47
2023/01/17 06:50:16;;;;;;;2.28;1.00;;;;;;;;;;5034450;28;20140;-51
2023/01/17 06:52:43;;;;;;;2.63;1.00;;;;;;;;;;5033519;28;20049;-47
2023/01/17 06:55:10;;;;;;;3.00;1.17;;;;;;;;;;5034078;28;20054;-47
2023/01/17 06:57:37;;;;;;;3.38;1.35;;;;;;;;;;5022422;28;20088;-53
2023/01/17 07:00:05;;;;;;;2.15;0.93;;;;;;;;;;5014162;28;20058;-48
2023/01/17 07:02:32;;;;;;;3.85;1.10;;;;;;;;;;5013719;28;20046;-50
2023/01/17 07:05:00;;;;;;;4.65;1.50;;;;;;;;;;5013968;28;20104;-49
2023/01/17 07:07:27;;;;;;;3.05;1.60;;;;;;;;;;5013231;28;20057;-50
2023/01/17 07:09:54;;;;;;;3.60;1.50;;;;;;;;;;5013804;28;20050;-48
2023/01/17 07:12:21;;;;;;;3.28;1.38;;;;;;;;;;5013870;28;20403;-47
2023/01/17 07:14:48;;;;;;;5.78;1.40;;;;;;;;;;5014060;28;20531;-50
2023/01/17 07:17:15;;;;;;;3.58;1.50;;;;;;;;;;5013752;28;20046;-51
2023/01/17 07:19:41;;;;;;;5.22;1.48;;;;;;;;;;5013439;28;20491;-51
2023/01/17 07:22:11;;;;;;;2.95;1.38;;;;;;;;;;5013575;28;20056;-53
2023/01/17 07:24:37;;;;;;;4.25;1.33;;;;;;;;;;5013633;28;20132;-49
2023/01/17 07:27:04;;;;;;;4.78;1.83;;;;;;;;;;5013450;28;20104;-51
2023/01/17 07:29:31;;;;;;;2.80;1.60;;;;;;;;;;5013204;28;20057;-50
2023/01/17 07:31:58;;;;;;;5.45;1.80;;;;;;;;;;5013091;28;20384;-49
2023/01/17 07:34:25;;;;;;;5.57;2.40;;;;;;;;;;5012869;28;20098;-49
2023/01/17 07:36:53;;;;;;;7.60;3.05;;;;;;;;;;5013669;28;20065;-51
2023/01/17 07:39:21;;;;;;;8.07;3.10;;;;;;;;;;5013170;28;20062;-50
2023/01/17 07:41:48;;;;;;;4.82;2.45;;;;;;;;;;5012701;28;20050;-48
2023/01/17 07:44:15;;;;;;;7.82;3.05;;;;;;;;;;5013209;28;20218;-51
2023/01/17 07:46:41;;;;;;;5.60;2.10;;;;;;;;;;5012748;28;20057;-51
2023/01/17 07:49:08;;;;;;;5.00;2.15;;;;;;;;;;5012844;28;20471;-46
2023/01/17 07:51:35;;;;;;;5.95;2.30;;;;;;;;;;5012453;28;20056;-48
2023/01/17 07:54:02;;;;;;;4.45;2.13;;;;;;;;;;5012581;28;20042;-48
2023/01/17 07:56:30;;;;;;;6.90;1.73;;;;;;;;;;5012884;28;20111;-48
2023/01/17 07:58:57;;;;;;;3.17;1.73;;;;;;;;;;5012624;28;20050;-48
2023/01/17 08:01:24;;;;;;;4.00;1.67;;;;;;;;;;5012684;28;20561;-52
2023/01/17 08:03:53;;;;;;;6.65;2.10;;;;;;;;;;5012891;28;20136;-51
2023/01/17 08:06:22;;;;;;;4.88;1.65;;;;;;;;;;4995637;28;20059;-52
2023/01/17 08:08:50;;;;;;;4.72;2.00;;;;;;;;;;4993032;28;20090;-48
2023/01/17 08:11:17;;;;;;;4.80;2.10;;;;;;;;;;5007462;28;20104;-51
2023/01/17 08:13:45;;;;;;;4.45;2.03;;;;;;;;;;5009235;28;20491;-50
2023/01/17 08:16:12;;;;;;;5.28;1.95;;;;;;;;;;5010603;28;20120;-49
2023/01/17 08:18:39;;;;;;;4.43;1.90;;;;;;;;;;5010426;28;20064;-47
2023/01/17 08:21:13;;;;;;;4.97;1.85;;;;;;;;;;5010322;28;20050;-49
2023/01/17 08:23:40;;;;;;;3.60;1.80;;;;;;;;;;5009779;28;20089;-49
2023/01/17 08:26:07;;;;;;;4.95;1.80;;;;;;;;;;5010141;28;20101;-51
2023/01/17 08:28:33;;;;;;;4.82;1.77;;;;;;;;;;5009293;28;20403;-48
2023/01/17 08:31:07;;;;;;;7.28;2.10;;;;;;;;;;5010112;28;20495;-50
2023/01/17 08:33:35;;;;;;;5.57;1.88;;;;;;;;;;5009939;28;20045;-47
2023/01/17 08:36:02;;;;;;;3.92;1.70;;;;;;;;;;5010555;28;20064;-49
2023/01/17 08:38:28;;;;;;;2.92;1.52;;;;;;;;;;5009808;28;20085;-50
2023/01/17 08:40:55;;;;;;;4.15;1.52;;;;;;;;;;5009981;28;20100;-52
2023/01/17 08:43:22;;;;;;;4.18;2.22;;;;;;;;;;5010322;28;20057;-49
2023/01/17 08:45:50;;;;;;;6.35;2.10;;;;;;;;;;5010348;28;20113;-51
2023/01/17 08:48:18;;;;;;;5.18;2.17;;;;;;;;;;5010155;28;20042;-50
2023/01/17 08:50:45;;;;;;;4.72;2.00;;;;;;;;;;5009740;28;20072;-49
2023/01/17 08:53:11;;;;;;;3.05;1.73;;;;;;;;;;5009533;28;20341;-51
2023/01/17 08:55:39;;;;;;;4.28;1.75;;;;;;;;;;5010107;28;20050;-48
2023/01/17 08:58:06;;;;;;;2.33;1.20;;;;;;;;;;5010355;28;20053;-50
2023/01/17 09:00:33;;;;;;;4.63;1.70;;;;;;;;;;5009991;28;20056;-49
2023/01/17 09:03:00;;;;;;;3.53;1.30;;;;;;;;;;5009925;28;20096;-52
2023/01/17 09:05:29;;;;;;;3.63;1.00;;;;;;;;;;5000147;28;20125;-51
2023/01/17 09:07:56;;;;;;;2.80;1.20;;;;;;;;;;4989885;28;20488;-49
2023/01/17 09:10:23;;;;;;;4.97;1.88;;;;;;;;;;4990007;28;20054;-51
2023/01/17 09:12:50;;;;;;;3.17;1.45;;;;;;;;;;4990323;28;20519;-49
2023/01/17 09:15:19;;;;;;;2.28;1.13;;;;;;;;;;4990750;28;20054;-51
2023/01/17 09:17:46;;;;;;;5.28;1.40;;;;;;;;;;4990426;28;20137;-52
2023/01/17 09:20:13;;;;;;;6.93;1.83;;;;;;;;;;4990349;28;20050;-52
2023/01/17 09:22:41;;;;;;;5.65;1.50;;;;;;;;;;4989875;28;20077;-50
2023/01/17 09:25:09;;;;;;;3.30;1.00;;;;;;;;;;4990179;28;20058;-50
2023/01/17 09:27:35;;;;;;;3.05;1.30;;;;;;;;;;4990294;28;20050;-49
2023/01/17 09:30:02;;;;;;;7.28;1.42;;;;;;;;;;4990182;28;20054;-48
2023/01/17 09:32:29;;;;;;;3.88;0.95;;;;;;;;;;4993039;28;20447;-49
2023/01/17 09:34:59;;;;;;;2.58;0.95;;;;;;;;;;4993982;28;20053;-48
2023/01/17 09:37:26;;;;;;;1.40;1.00;;;;;;;;;;4993833;28;20050;-49
2023/01/17 09:39:54;;;;;;;2.65;1.13;;;;;;;;;;4993630;28;20046;-50
2023/01/17 09:42:27;;;;;;;5.35;1.55;;;;;;;;;;4993439;28;20078;-52
2023/01/17 09:44:55;;;;;;;3.28;1.38;;;;;;;;;;4993363;28;20431;-51
2023/01/17 09:47:38;;;;;;;2.30;0.90;;;;;;;;;;4993609;28;20054;-51
2023/01/17 09:50:20;;;;;;;5.47;1.15;;;;;;;;;;4993442;28;20058;-53
2023/01/17 09:52:47;;;;;;;3.03;0.80;;;;;;;;;;4993344;28;20046;-50
2023/01/17 09:55:17;;;;;;;1.92;0.93;;;;;;;;;;4993302;28;20574;-51
2023/01/17 09:57:58;;;;;;;2.30;1.07;;;;;;;;;;4993393;28;20086;-52
2023/01/17 10:00:36;;;;;;;;;;;;;;;;;;4993368;28;20550;-53
2023/01/17 10:03:23;;;;;;;3.60;1.30;;;;;;;;;;4993132;28;19922;-50
2023/01/17 10:06:03;;;;;;;5.90;2.20;;;;;;;;;;5006306;28;20080;-49
2023/01/17 10:08:54;;;;;;;3.90;1.30;;;;;;;;;;5012322;28;20058;-51
2023/01/17 10:11:37;;;;;;;3.30;2.08;;;;;;;;;;5012807;28;20546;-50
2023/01/17 10:14:28;;;;;;;4.03;1.40;;;;;;;;;;5012565;28;20104;-52
2023/01/17 10:17:00;;;;;;;9.73;1.65;;;;;;;;;;5012355;28;20168;-51
2023/01/17 10:19:40;;;;;;;11.60;2.13;;;;;;;;;;5012468;28;20456;-50
2023/01/17 10:22:29;;;;;;;6.28;3.05;;;;;;;;;;5012208;28;20053;-55
2023/01/17 10:25:31;;;;;;;6.70;1.80;;;;;;;;;;5012379;28;20430;-49
2023/01/17 10:28:04;;;;;;;10.15;2.47;;;;;;;;;;5012116;28;20054;-49
2023/01/17 10:30:36;;;;;;;4.55;1.60;;;;;;;;;;5011818;28;20131;-50
2023/01/17 10:33:12;;;;;;;7.07;2.17;;;;;;;;;;5012293;28;20521;-49
2023/01/17 10:35:49;;;;;;;3.10;1.25;;;;;;;;;;5011730;28;20050;-51
2023/01/17 10:38:18;;;;;;;4.65;1.50;;;;;;;;;;5011708;28;20054;-49
2023/01/17 10:40:50;;;;;;;3.30;1.15;;;;;;;;;;5011853;28;20085;-50
2023/01/17 10:43:24;;;;;;;3.13;0.82;;;;;;;;;;5010105;28;20042;-50
2023/01/17 10:45:53;;;;;;;2.10;0.70;;;;;;;;;;5011505;28;20050;-51
2023/01/17 10:48:34;;;;;;;2.08;0.80;;;;;;;;;;5011231;28;20404;-52
2023/01/17 10:51:09;;;;;;;1.90;0.80;;;;;;;;;;5011142;28;20054;-49
2023/01/17 10:53:52;;;;;;;2.30;0.80;;;;;;;;;;5011065;28;20050;-52
2023/01/17 10:56:22;;;;;;;3.08;0.85;;;;;;;;;;5010392;28;20413;-50
2023/01/17 10:59:07;;;;;;;2.10;0.95;;;;;;;;;;5011600;28;20080;-49
2023/01/17 11:01:34;;;;;;;1.83;0.93;;;;;;;;;;5011427;28;20499;-52
2023/01/17 11:04:01;;;;;;;4.43;1.20;;;;;;;;;;5010984;28;20054;-52
2023/01/17 11:06:28;;;;;;;4.70;1.15;;;;;;;;;;4993218;28;20113;-51
2023/01/17 11:08:56;;;;;;;3.65;1.02;;;;;;;;;;4991676;28;20061;-49
2023/01/17 11:11:28;;;;;;;2.55;0.68;;;;;;;;;;4991729;28;20050;-51
2023/01/17 11:13:59;;;;;;;1.70;0.80;;;;;;;;;;4992068;28;20047;-48
2023/01/17 11:16:30;;;;;;;1.60;1.00;;;;;;;;;;4991627;28;20080;-49
2023/01/17 11:19:13;;;;;;;3.38;1.58;;;;;;;;;;4991746;28;20550;-49
2023/01/17 11:21:50;;;;;;;5.50;0.90;;;;;;;;;;4991618;28;20058;-51
2023/01/17 11:24:31;;;;;;;1.73;0.90;;;;;;;;;;4991756;28;20113;-52
2023/01/17 11:26:58;;;;;;;2.03;0.70;;;;;;;;;;4990237;28;20054;-50
2023/01/17 11:29:37;;;;;;;4.20;0.90;;;;;;;;;;4990624;28;20077;-51
2023/01/17 11:32:29;;;;;;;4.68;1.00;;;;;;;;;;4990638;28;20054;-50
2023/01/17 11:35:17;;;;;;;2.42;0.90;;;;;;;;;;4991402;28;20050;-50
2023/01/17 11:37:49;;;;;;;2.35;0.82;;;;;;;;;;4991699;28;20050;-49
2023/01/17 11:40:24;;;;;;;5.05;0.80;;;;;;;;;;4991298;28;20113;-49
2023/01/17 11:43:01;;;;;;;3.10;1.08;;;;;;;;;;4991249;28;20128;-49
2023/01/17 11:45:30;;;;;;;3.47;0.90;;;;;;;;;;4991625;28;20472;-49
2023/01/17 11:48:12;;;;;;;3.42;0.98;;;;;;;;;;4991476;28;20428;-49
2023/01/17 11:50:41;;;;;;;2.58;0.80;;;;;;;;;;4991000;28;20054;-50
2023/01/17 11:53:16;;;;;;;1.65;0.70;;;;;;;;;;4990757;28;20061;-49
2023/01/17 11:55:53;;;;;;;1.98;1.00;;;;;;;;;;4990936;28;20050;-49
2023/01/17 11:58:20;;;;;;;4.13;1.58;;;;;;;;;;4990592;28;20046;-49
2023/01/17 12:00:54;;;;;;;4.25;1.02;;;;;;;;;;4989686;28;20138;-49
2023/01/17 12:03:40;;;;;;;3.75;0.85;;;;;;;;;;4990610;28;20109;-51
2023/01/17 12:06:16;;;;;;;4.95;1.00;;;;;;;;;;5006418;28;20553;-49
2023/01/17 12:08:55;;;;;;;1.95;1.00;;;;;;;;;;5010428;28;20112;-50
2023/01/17 12:11:29;;;;;;;4.00;1.10;;;;;;;;;;5010161;28;20108;-51
2023/01/17 12:14:04;;;;;;;3.00;1.13;;;;;;;;;;5010295;28;20072;-54
2023/01/17 12:16:44;;;;;;;4.40;1.00;;;;;;;;;;5010071;28;20041;-50
2023/01/17 12:19:31;;;;;;;3.95;1.27;;;;;;;;;;5009878;28;20112;-52
2023/01/17 12:22:18;;;;;;;3.88;1.40;;;;;;;;;;5009357;28;20423;-52
2023/01/17 12:27:40;;;;;;;3.72;0.90;;;;;;;;;;5007941;28;20050;-53
2023/01/17 12:30:29;;;;;;;4.63;1.90;;;;;;;;;;5010411;28;20571;-51
2023/01/17 12:33:10;;;;;;;3.70;1.48;;;;;;;;;;4985130;28;20055;-62
2023/01/17 12:35:42;;;;;;;3.45;1.05;;;;;;;;;;4972199;28;20050;-52
2023/01/17 12:38:12;;;;;;;2.85;1.00;;;;;;;;;;4971247;28;20467;-52
2023/01/17 12:40:45;;;;;;;4.13;1.60;;;;;;;;;;4970672;28;20459;-54
2023/01/17 12:43:21;;;;;;;3.65;1.23;;;;;;;;;;4971209;28;20482;-54
2023/01/17 12:45:50;;;;;;;3.13;1.08;;;;;;;;;;4971075;28;20118;-53
2023/01/17 12:48:20;;;;;;;2.78;1.00;;;;;;;;;;4976388;28;20047;-57
2023/01/17 12:50:52;;;;;;;5.75;1.23;;;;;;;;;;4984591;28;20050;-51
2023/01/17 12:53:27;;;;;;;6.68;1.25;;;;;;;;;;4990304;28;20475;-55
2023/01/17 12:56:00;;;;;;;4.18;1.13;;;;;;;;;;4986977;28;20136;-56
2023/01/17 12:58:34;;;;;;;4.05;1.75;;;;;;;;;;4990393;28;20050;-55
2023/01/17 13:01:07;;;;;;;3.60;1.30;;;;;;;;;;4990013;28;20142;-56
2023/01/17 13:03:46;;;;;;;2.97;1.17;;;;;;;;;;4988713;28;20527;-54
2023/01/17 13:06:22;;;;;;;7.20;1.42;;;;;;;;;;4982037;28;20049;-54
2023/01/17 13:08:53;;;;;;;3.95;1.38;;;;;;;;;;4991080;28;20130;-55
2023/01/17 13:11:26;;;;;;;3.78;1.85;;;;;;;;;;4993962;28;20046;-54
2023/01/17 13:13:56;;;;;;;3.65;1.30;;;;;;;;;;4994270;28;20054;-54
2023/01/17 13:16:29;;;;;;;2.70;1.17;;;;;;;;;;4993880;28;20156;-52
2023/01/17 13:19:06;;;;;;;5.63;1.85;;;;;;;;;;4989863;28;20487;-55
2023/01/17 13:21:34;;;;;;;3.90;1.15;;;;;;;;;;4981873;28;20081;-54
2023/01/17 13:24:16;;;;;;;16.98;2.38;;;;;;;;;;4982174;28;20125;-56
2023/01/17 13:26:57;;;;;;;4.40;1.20;;;;;;;;;;4979370;28;20054;-56
2023/01/17 13:29:33;;;;;;;4.45;1.33;;;;;;;;;;4981156;28;20355;-52
2023/01/17 13:32:10;;;;;;;4.57;1.67;;;;;;;;;;4983943;28;20504;-55
2023/01/17 13:35:06;;;;;;;3.55;1.33;;;;;;;;;;4982476;28;20066;-53
2023/01/17 13:38:07;;;;;;;3.05;1.30;;;;;;;;;;4984661;28;20408;-51
2023/01/17 13:40:49;;;;;;;3.33;1.37;;;;;;;;;;4984524;28;20047;-50
2023/01/17 13:43:21;;;;;;;6.47;1.50;;;;;;;;;;4981962;28;20495;-53
2023/01/17 13:45:53;;;;;;;3.50;1.67;;;;;;;;;;4982432;28;20499;-55
2023/01/17 13:48:28;;;;;;;6.45;1.85;;;;;;;;;;4982793;28;20542;-52
2023/01/17 13:50:57;;;;;;;5.40;1.60;;;;;;;;;;4973555;28;20058;-51
2023/01/17 13:53:58;;;;;;;4.70;1.52;;;;;;;;;;4973420;28;20054;-52
2023/01/17 13:56:33;;;;;;;3.58;1.30;;;;;;;;;;4973496;28;20051;-52
2023/01/17 13:59:05;;;;;;;4.13;1.23;;;;;;;;;;4973647;28;20679;-52
2023/01/17 14:01:52;;;;;;;3.90;1.67;;;;;;;;;;4973260;28;20523;-51
2023/01/17 14:04:19;;;;;;;5.22;1.77;;;;;;;;;;4977008;28;20109;-56
2023/01/17 14:06:49;;;;;;;4.47;1.75;;;;;;;;;;4978489;28;20078;-55
2023/01/17 14:09:24;;;;;;;9.50;1.70;;;;;;;;;;4973933;28;20046;-52
2023/01/17 14:11:57;;;;;;;3.15;1.35;;;;;;;;;;4975820;28;20038;-52
2023/01/17 14:14:48;;;;;;;2.53;1.30;;;;;;;;;;4982395;28;20093;-51
2023/01/17 14:17:57;;;;;;;3.38;1.50;;;;;;;;;;4989908;28;20109;-52
2023/01/17 14:20:57;;;;;;;3.53;1.50;;;;;;;;;;4982919;28;20050;-52
2023/01/17 14:23:46;;;;;;;4.85;1.80;;;;;;;;;;4980761;28;20046;-57
2023/01/17 14:26:21;;;;;;;4.05;2.13;;;;;;;;;;4975346;28;20081;-51
2023/01/17 14:28:48;;;;;;;3.65;1.98;;;;;;;;;;4972906;28;20051;-52
2023/01/17 14:31:18;;;;;;;4.10;2.00;;;;;;;;;;4972712;28;20054;-52
2023/01/17 14:33:44;;;;;;;6.57;1.63;;;;;;;;;;4972952;28;20138;-52
2023/01/17 14:36:20;;;;;;;4.55;1.83;;;;;;;;;;4973061;28;20492;-51
2023/01/17 14:38:49;;;;;;;4.07;1.73;;;;;;;;;;4973057;28;20066;-54
2023/01/17 14:41:20;;;;;;;4.03;1.73;;;;;;;;;;4972719;28;20050;-51
2023/01/17 14:43:48;;;;;;;2.80;1.48;;;;;;;;;;4972423;28;20058;-51
2023/01/17 14:46:21;;;;;;;4.72;1.73;;;;;;;;;;4972694;28;20046;-55
2023/01/17 14:48:47;;;;;;;6.30;1.98;;;;;;;;;;4972755;28;20049;-53
2023/01/17 14:51:20;;;;;;;3.97;1.75;;;;;;;;;;4972527;28;20050;-55
2023/01/17 14:53:56;;;;;;;4.63;1.90;;;;;;;;;;4972105;28;20157;-52
2023/01/17 14:56:25;;;;;;;3.47;1.65;;;;;;;;;;4972382;28;20059;-55
2023/01/17 14:59:13;;;;;;;4.18;1.67;;;;;;;;;;4972713;28;20050;-54
2023/01/17 15:01:40;;;;;;;3.63;1.80;;;;;;;;;;4972547;28;20061;-53
2023/01/17 15:04:20;;;;;;;3.47;2.08;;;;;;;;;;4972732;28;20050;-52
2023/01/17 15:06:47;;;;;;;5.00;1.90;;;;;;;;;;4972643;28;20046;-54
2023/01/17 15:09:19;;;;;;;3.33;1.65;;;;;;;;;;4972341;28;20046;-53
2023/01/17 15:11:48;;;;;;;6.10;2.35;;;;;;;;;;4972165;28;20055;-63
2023/01/17 15:14:20;;;;;;;3.90;1.83;;;;;;;;;;4972408;28;20055;-65
2023/01/17 15:16:47;;;;;;;4.88;1.90;;;;;;;;;;4972113;28;20504;-50
2023/01/17 15:19:15;;;;;;;5.70;1.98;;;;;;;;;;4972159;28;20051;-52
2023/01/17 15:21:43;;;;;;;5.45;2.10;;;;;;;;;;4972187;28;20054;-51
2023/01/17 15:24:19;;;;;;;4.88;1.83;;;;;;;;;;4972109;28;20519;-55
2023/01/17 15:26:46;;;;;;;4.53;1.98;;;;;;;;;;4971996;28;20059;-56
2023/01/17 15:29:18;;;;;;;4.00;2.20;;;;;;;;;;4971029;28;20054;-54
2023/01/17 15:31:47;;;;;;;3.97;1.92;;;;;;;;;;4971859;28;20113;-56
2023/01/17 15:34:26;;;;;;;4.28;1.90;;;;;;;;;;4972028;28;20464;-54
2023/01/17 15:36:56;;;;;;;4.22;2.10;;;;;;;;;;4971905;28;20043;-54
2023/01/17 15:39:28;;;;;;;5.03;1.90;;;;;;;;;;4972110;28;20457;-54
2023/01/17 15:41:57;;;;;;;6.15;2.78;;;;;;;;;;4971655;28;20057;-55
2023/01/17 15:44:33;;;;;;;5.45;2.03;;;;;;;;;;4971952;28;20058;-50
2023/01/17 15:47:00;;;;;;;6.82;2.10;;;;;;;;;;4972718;28;20508;-54
2023/01/17 15:49:28;;;;;;;4.68;1.52;;;;;;;;;;4972136;28;20053;-52
2023/01/17 15:51:57;;;;;;;3.30;1.30;;;;;;;;;;4972139;28;20051;-56
2023/01/17 15:54:42;;;;;;;5.55;1.80;;;;;;;;;;4971962;28;20408;-55
2023/01/17 15:57:19;;;;;;;3.95;1.70;;;;;;;;;;4972242;28;20050;-53
2023/01/17 15:59:50;;;;;;;3.08;1.77;;;;;;;;;;4971934;28;20047;-51
2023/01/17 16:02:35;;;;;;;6.43;2.70;;;;;;;;;;4980860;28;20058;-54
2023/01/17 16:05:26;;;;;;;4.90;1.95;;;;;;;;;;4991412;28;20503;-50
2023/01/17 16:07:54;;;;;;;4.45;1.90;;;;;;;;;;4992058;28;20519;-53
2023/01/17 16:10:26;;;;;;;5.60;2.50;;;;;;;;;;4991307;28;20047;-51
2023/01/17 16:12:54;;;;;;;3.80;1.80;;;;;;;;;;4991197;28;20046;-52
2023/01/17 16:15:22;;;;;;;4.70;2.25;;;;;;;;;;4990967;28;20052;-54
2023/01/17 16:17:51;;;;;;;5.95;2.20;;;;;;;;;;4991244;28;20144;-52
2023/01/17 16:20:21;;;;;;;5.60;2.08;;;;;;;;;;4991129;28;20076;-53
2023/01/17 16:22:48;;;;;;;3.65;1.65;;;;;;;;;;4990742;28;20338;-55
2023/01/17 16:25:17;;;;;;;4.88;2.30;;;;;;;;;;4990794;28;20046;-50
2023/01/17 16:27:48;;;;;;;3.65;1.90;;;;;;;;;;4991220;28;20056;-53
2023/01/17 16:30:18;;;;;;;4.63;2.05;;;;;;;;;;4990616;28;20105;-54